createdAt,value
2022-10-13T00:02:52.017Z,5.35
2022-10-13T00:07:55.486Z,6.23
2022-10-13T00:12:58.529Z,5.85
2022-10-13T00:18:03.234Z,4.45
2022-10-13T00:23:06.342Z,5.50
2022-10-13T00:28:09.710Z,6.03
2022-10-13T00:33:14.398Z,5.78
2022-10-13T00:38:18.877Z,5.60
2022-10-13T00:43:24.720Z,4.77
2022-10-13T00:48:31.102Z,4.53
2022-10-13T00:53:37.543Z,5.03
2022-10-13T00:58:41.161Z,5.85
2022-10-13T01:03:45.831Z,5.53
2022-10-13T01:08:49.185Z,5.63
2022-10-13T01:13:59.977Z,5.93
2022-10-13T01:19:20.787Z,5.57
2022-10-13T01:24:43.683Z,5.57
2022-10-13T01:30:07.945Z,6.45
2022-10-13T01:35:16.312Z,5.53
2022-10-13T01:40:25.598Z,5.93
2022-10-13T01:45:36.011Z,6.40
2022-10-13T01:50:39.900Z,4.97
2022-10-13T01:55:51.078Z,5.43
2022-10-13T02:01:04.398Z,4.88
2022-10-13T02:06:16.320Z,6.05
2022-10-13T02:11:22.830Z,6.18
2022-10-13T02:16:29.743Z,6.10
2022-10-13T02:21:33.556Z,5.75
2022-10-13T02:26:39.435Z,6.15
2022-10-13T02:31:45.512Z,5.97
2022-10-13T02:36:48.632Z,6.53
2022-10-13T02:41:51.776Z,5.72
2022-10-13T02:46:56.507Z,6.15
2022-10-13T02:51:59.991Z,6.13
2022-10-13T02:57:03.278Z,6.50
2022-10-13T03:02:08.091Z,6.18
2022-10-13T03:07:11.963Z,6.18
2022-10-13T03:12:15.387Z,5.75
2022-10-13T03:17:20.629Z,6.13
2022-10-13T03:22:23.778Z,5.53
2022-10-13T03:27:28.418Z,6.20
2022-10-13T03:32:33.011Z,5.75
2022-10-13T03:37:36.285Z,5.97
2022-10-13T03:42:39.657Z,6.72
2022-10-13T03:47:44.206Z,7.43
2022-10-13T03:52:47.409Z,6.23
2022-10-13T03:57:50.559Z,5.90
2022-10-13T04:02:55.378Z,7.50
2022-10-13T04:07:58.411Z,6.85
2022-10-13T04:13:03.572Z,7.53
2022-10-13T04:18:09.215Z,6.68
2022-10-13T04:23:12.458Z,6.28
2022-10-13T04:28:24.003Z,6.68
2022-10-13T04:33:28.658Z,7.00
2022-10-13T04:38:32.120Z,6.75
2022-10-13T04:43:35.884Z,6.47
2022-10-13T04:48:40.993Z,6.53
2022-10-13T04:58:49.647Z,6.57
2022-10-13T05:03:55.575Z,7.18
2022-10-13T05:08:59.075Z,8.32
2022-10-13T05:14:02.525Z,6.00
2022-10-13T05:19:07.405Z,7.32
2022-10-13T05:24:13.700Z,6.03
2022-10-13T05:29:18.328Z,6.88
2022-10-13T05:34:22.820Z,6.78
2022-10-13T05:39:27.313Z,8.07
2022-10-13T05:44:30.495Z,6.28
2022-10-13T05:49:36.507Z,6.57
2022-10-13T05:54:42.039Z,7.25
2022-10-13T05:59:49.404Z,7.40
2022-10-13T06:04:57.563Z,7.80
2022-10-13T06:10:01.675Z,8.40
2022-10-13T06:15:05.603Z,7.90
2022-10-13T06:20:11.194Z,7.53
2022-10-13T06:30:17.965Z,7.78
2022-10-13T06:35:23.697Z,9.68
2022-10-13T06:40:26.839Z,9.38
2022-10-13T06:45:29.977Z,9.18
2022-10-13T06:50:34.735Z,7.90
2022-10-13T06:55:39.860Z,9.20
2022-10-13T07:00:44.040Z,9.40
2022-10-13T07:05:48.852Z,10.33
2022-10-13T07:10:52.229Z,10.90
2022-10-13T07:15:55.289Z,9.73
2022-10-13T07:21:00.454Z,10.48
2022-10-13T07:26:07.871Z,12.40
2022-10-13T07:31:13.758Z,12.65
2022-10-13T07:36:19.433Z,9.85
2022-10-13T07:41:23.021Z,10.65
2022-10-13T07:46:30.560Z,9.20
2022-10-13T07:51:35.383Z,8.57
2022-10-13T07:56:38.548Z,7.53
2022-10-13T08:01:43.593Z,7.38
2022-10-13T08:06:48.099Z,7.22
2022-10-13T08:11:51.303Z,8.03
2022-10-13T08:16:54.493Z,7.88
2022-10-13T08:22:00.272Z,8.13
2022-10-13T08:27:03.853Z,7.40
2022-10-13T08:32:07.159Z,8.35
2022-10-13T08:37:15.136Z,6.75
2022-10-13T08:42:22.172Z,7.03
2022-10-13T08:47:35.538Z,7.78
2022-10-13T08:52:49.042Z,7.47
2022-10-13T08:57:52.617Z,7.10
2022-10-13T09:03:19.494Z,7.18
2022-10-13T09:08:26.916Z,7.20
2022-10-13T09:13:30.132Z,7.00
2022-10-13T09:18:34.295Z,7.22
2022-10-13T09:23:42.005Z,5.95
2022-10-13T09:28:45.485Z,7.50
2022-10-13T09:33:59.104Z,6.93
2022-10-13T09:39:11.712Z,7.13
2022-10-13T09:44:18.883Z,7.10
2022-10-13T09:49:34.715Z,7.35
2022-10-13T09:54:47.079Z,7.22
2022-10-13T09:59:52.252Z,6.57
2022-10-13T10:05:00.979Z,7.35
2022-10-13T10:10:12.657Z,6.53
2022-10-13T10:15:20.229Z,7.65
2022-10-13T10:20:42.601Z,7.63
2022-10-13T10:25:51.695Z,8.48
2022-10-13T10:31:04.427Z,7.68
2022-10-13T11:06:34.372Z,7.70
2022-10-13T11:11:42.208Z,8.32
2022-10-13T11:17:09.806Z,7.13
2022-10-13T11:22:20.078Z,7.55
2022-10-13T11:27:40.446Z,7.65
2022-10-13T11:39:04.687Z,6.43
2022-10-13T11:44:16.803Z,6.63
2022-10-13T11:49:44.025Z,6.82
2022-10-13T11:54:54.354Z,7.05
2022-10-13T11:59:58.490Z,7.07
2022-10-13T12:12:27.402Z,6.30
2022-10-13T12:22:40.047Z,3.63
2022-10-13T12:27:48.099Z,4.97
2022-10-13T12:32:52.807Z,4.22
2022-10-13T12:37:56.971Z,4.40
2022-10-13T12:43:03.861Z,4.13
2022-10-13T12:48:26.557Z,4.57
2022-10-13T12:53:30.074Z,4.65
2022-10-13T12:58:35.925Z,4.55
2022-10-13T13:03:40.805Z,5.93
2022-10-13T13:13:49.409Z,4.55
2022-10-13T13:18:53.023Z,4.38
2022-10-13T13:23:57.056Z,4.37
2022-10-13T13:29:01.590Z,4.45
2022-10-13T13:34:04.779Z,4.50
2022-10-13T13:39:14.431Z,3.90
2022-10-13T13:44:20.399Z,4.97
2022-10-13T13:49:24.753Z,4.82
2022-10-13T13:54:27.890Z,5.40
2022-10-13T13:59:59.112Z,4.38
2022-10-13T14:05:02.479Z,4.88
2022-10-13T14:10:08.106Z,4.72
2022-10-13T14:15:12.746Z,4.95
2022-10-13T14:20:15.970Z,4.68
2022-10-13T14:25:20.695Z,4.50
2022-10-13T14:30:25.212Z,4.25
2022-10-13T14:35:29.291Z,3.50
2022-10-13T14:40:32.545Z,4.05
2022-10-13T14:45:37.055Z,4.40
2022-10-13T14:50:40.713Z,4.47
2022-10-13T14:55:45.207Z,4.32
2022-10-13T15:00:50.022Z,4.03
2022-10-13T15:05:53.276Z,4.18
2022-10-13T15:42:06.695Z,4.05
2022-10-13T15:54:22.685Z,5.35
2022-10-13T15:59:26.068Z,4.63
2022-10-13T16:04:33.506Z,4.72
2022-10-13T16:09:41.278Z,5.78
2022-10-13T16:14:44.596Z,4.43
2022-10-13T16:39:58.106Z,4.60
2022-10-13T17:00:11.222Z,5.70
2022-10-13T17:05:17.763Z,6.43
2022-10-13T17:10:21.782Z,6.82
2022-10-13T17:47:49.948Z,8.18
2022-10-13T17:57:56.977Z,7.30
2022-10-13T18:03:01.508Z,7.22
2022-10-13T18:08:04.946Z,6.87
2022-10-13T18:13:08.523Z,8.35
2022-10-13T18:18:14.927Z,6.97
2022-10-13T18:23:18.148Z,7.57
2022-10-13T18:28:21.567Z,7.35
2022-10-13T18:33:26.086Z,6.65
2022-10-13T18:38:29.348Z,7.30
2022-10-13T18:43:32.598Z,6.70
2022-10-13T18:48:37.183Z,6.40
2022-10-13T18:53:42.186Z,6.83
2022-10-13T18:58:46.680Z,7.93
2022-10-13T19:03:52.385Z,5.78
2022-10-13T19:08:56.721Z,7.05
2022-10-13T19:14:01.326Z,6.07
2022-10-13T19:26:37.959Z,8.00
2022-10-13T19:31:42.586Z,7.47
2022-10-13T22:10:41.160Z,7.30
2022-10-13T22:38:24.187Z,8.32
2022-10-13T22:43:27.536Z,10.43
2022-10-13T22:48:36.977Z,8.20
2022-10-13T22:53:47.410Z,9.38
2022-10-13T22:58:51.435Z,9.75
2022-10-13T23:03:56.685Z,10.30
2022-10-13T23:09:03.548Z,8.82
2022-10-13T23:14:06.917Z,9.40
2022-10-13T23:19:10.104Z,8.88
2022-10-13T23:24:14.874Z,10.68
2022-10-13T23:29:17.925Z,8.77
2022-10-13T23:34:21.176Z,10.18
2022-10-13T23:39:25.734Z,11.35
2022-10-13T23:44:30.024Z,9.43
2022-10-13T23:49:33.466Z,9.93
2022-10-13T23:54:37.989Z,9.75
